Time;durP1;ratioP1;P1;durP2;ratioP2;P2;SDS_P1;SDS_P2;PMS_P1;PMS_P2;Temp;Humidity;BMP_temperature;BMP_pressure;BME280_temperature;BME280_humidity;BME280_pressure;Samples;Min_cycle;Max_cycle;Signal;HPM_P1;HPM_P2
2021/06/18 00:00:30;;;;;;;13.78;8.50;;;;;;;16.18;67.24;99369.31;4053954;85;21111;-78
2021/06/18 00:06:33;;;;;;;11.30;7.03;;;;;;;16.12;67.42;99373.11;4072511;84;21691;-79
2021/06/18 00:12:36;;;;;;;9.53;7.30;;;;;;;16.31;68.17;99371.81;4074349;85;21090;-77
2021/06/18 00:18:39;;;;;;;11.43;8.40;;;;;;;16.20;67.98;99377.41;4081597;85;21082;-78
2021/06/18 00:24:40;;;;;;;11.00;8.63;;;;;;;16.16;68.12;99368.34;4099794;85;21130;-78
2021/06/18 00:30:44;;;;;;;10.88;8.10;;;;;;;16.08;68.31;99370.17;4075911;85;21539;-78
2021/06/18 00:36:46;;;;;;;12.82;8.98;;;;;;;16.05;68.46;99377.88;4069685;85;21593;-78
2021/06/18 00:42:47;;;;;;;10.60;7.55;;;;;;;15.83;68.80;99371.67;4092128;83;21567;-78
2021/06/18 00:48:51;;;;;;;12.47;8.85;;;;;;;15.92;69.54;99371.23;4106752;84;21020;-78
2021/06/18 00:54:53;;;;;;;11.30;8.23;;;;;;;15.73;69.37;99368.94;4105241;86;21055;-78
2021/06/18 01:00:55;;;;;;;13.38;8.05;;;;;;;15.49;69.70;99365.06;4101081;86;21257;-78
2021/06/18 01:07:05;;;;;;;11.43;8.25;;;;;;;15.29;70.13;99358.39;4109111;86;21033;-78
2021/06/18 01:13:39;;;;;;;10.30;7.35;;;;;;;15.21;70.63;99357.62;4099163;86;21115;-78
2021/06/18 01:19:55;;;;;;;18.57;7.80;;;;;;;15.38;71.17;99355.45;4101804;84;21020;-78
2021/06/18 01:26:25;;;;;;;9.80;6.58;;;;;;;15.69;71.31;99346.28;4100556;86;21067;-78
2021/06/18 01:32:38;;;;;;;10.35;7.67;;;;;;;15.91;71.37;99345.59;4100997;86;21632;-78
2021/06/18 01:38:44;;;;;;;14.68;10.40;;;;;;;15.81;71.32;99343.67;4091863;86;21095;-78
2021/06/18 01:44:46;;;;;;;14.15;9.88;;;;;;;15.60;71.25;99338.23;4081496;83;21086;-78
2021/06/18 01:50:51;;;;;;;18.32;10.60;;;;;;;15.32;71.61;99342.42;4076667;85;21512;-78
2021/06/18 01:56:53;;;;;;;11.35;8.45;;;;;;;15.26;71.99;99349.53;4071593;85;21140;-79
2021/06/18 02:03:02;;;;;;;13.53;8.73;;;;;;;15.13;72.50;99358.81;4080701;85;21063;-78
2021/06/18 02:09:07;;;;;;;11.15;8.53;;;;;;;15.28;72.59;99362.34;4064804;85;21071;-78
2021/06/18 02:15:10;;;;;;;14.18;9.73;;;;;;;15.26;72.58;99364.12;4094050;85;21055;-78
2021/06/18 02:21:14;;;;;;;10.53;8.50;;;;;;;15.23;72.99;99365.50;4067183;85;21106;-78
2021/06/18 02:27:17;;;;;;;15.93;10.68;;;;;;;15.23;73.12;99375.16;4081349;85;21047;-78
2021/06/18 02:33:19;;;;;;;16.05;9.88;;;;;;;15.13;73.05;99374.56;4085076;85;21426;-78
2021/06/18 02:39:20;;;;;;;11.05;8.88;;;;;;;14.92;73.19;99374.02;4077517;84;21492;-78
2021/06/18 02:45:22;;;;;;;12.73;10.43;;;;;;;14.70;73.36;99371.64;4111085;84;21024;-78
2021/06/18 02:51:40;;;;;;;13.72;9.68;;;;;;;14.47;73.69;99370.62;4129950;84;21087;-78
2021/06/18 02:57:56;;;;;;;11.60;8.38;;;;;;;14.36;74.18;99369.81;4129815;85;21519;-81
2021/06/18 03:04:01;;;;;;;13.65;9.08;;;;;;;14.65;74.96;99376.16;4129504;85;21027;-79
2021/06/18 03:10:09;;;;;;;18.42;11.10;;;;;;;14.59;74.64;99368.87;4102635;85;21041;-78
2021/06/18 03:16:12;;;;;;;13.13;8.75;;;;;;;14.48;74.69;99373.59;4136254;84;21993;-78
2021/06/18 03:22:16;;;;;;;12.80;8.80;;;;;;;14.44;75.15;99380.27;4129302;85;22357;-79
2021/06/18 03:34:56;;;;;;;14.15;9.40;;;;;;;14.91;75.57;99390.95;4109626;85;21143;-78
2021/06/18 03:40:59;;;;;;;18.67;12.33;;;;;;;15.18;75.39;99392.09;4120605;85;20992;-78
2021/06/18 03:47:04;;;;;;;19.27;12.20;;;;;;;15.34;75.10;99395.23;4118861;85;21086;-78
2021/06/18 03:53:09;;;;;;;22.05;12.28;;;;;;;15.29;75.13;99397.00;4144894;85;21063;-78
2021/06/18 03:59:13;;;;;;;19.55;12.13;;;;;;;15.25;74.99;99392.09;4148024;84;21038;-78
2021/06/18 04:05:18;;;;;;;23.10;12.23;;;;;;;15.38;75.59;99399.58;4135308;84;21059;-79
2021/06/18 04:11:20;;;;;;;17.65;11.55;;;;;;;15.44;75.62;99399.37;4131946;85;21026;-79
2021/06/18 04:17:22;;;;;;;14.45;10.32;;;;;;;15.63;75.63;99400.90;4124307;84;21042;-78
2021/06/18 04:23:28;;;;;;;16.32;10.20;;;;;;;15.84;75.52;99401.43;4142605;84;21689;-78
2021/06/18 04:29:27;;;;;;;13.70;9.98;;;;;;;16.06;75.38;99399.58;4125769;85;21363;-78
2021/06/18 04:35:28;;;;;;;12.68;9.70;;;;;;;16.21;75.34;99405.21;4134905;85;21460;-78
2021/06/18 04:41:30;;;;;;;15.30;10.63;;;;;;;16.39;75.31;99412.83;4122617;85;21083;-78
2021/06/18 04:47:31;;;;;;;15.58;9.38;;;;;;;16.53;75.21;99412.77;4133265;85;21071;-78
2021/06/18 04:53:34;;;;;;;15.68;9.73;;;;;;;16.65;75.27;99412.88;4137264;85;21565;-78
2021/06/18 04:59:37;;;;;;;15.53;9.78;;;;;;;16.78;75.08;99414.78;4142945;85;21077;-83
2021/06/18 05:05:39;;;;;;;15.40;10.05;;;;;;;16.87;75.12;99404.04;4124137;85;21098;-79
2021/06/18 05:11:40;;;;;;;17.23;11.55;;;;;;;17.07;74.79;99409.20;4135252;83;21060;-79
2021/06/18 05:17:44;;;;;;;16.57;10.45;;;;;;;17.30;74.84;99410.00;4116613;85;21062;-78
2021/06/18 05:23:45;;;;;;;14.95;9.63;;;;;;;17.44;74.71;99410.45;4134823;85;21094;-82
2021/06/18 05:29:46;;;;;;;16.27;10.53;;;;;;;17.63;74.86;99406.54;4138561;84;21051;-78
2021/06/18 05:35:47;;;;;;;14.20;9.88;;;;;;;17.88;74.74;99411.20;4119030;85;21051;-78
2021/06/18 05:41:49;;;;;;;13.22;9.83;;;;;;;18.12;74.36;99404.55;4133772;85;21091;-79
2021/06/18 05:47:50;;;;;;;16.02;9.90;;;;;;;18.35;74.51;99410.18;4145582;84;21555;-78
2021/06/18 05:53:53;;;;;;;19.82;10.68;;;;;;;18.60;74.11;99403.72;4134638;85;21061;-78
2021/06/18 05:59:54;;;;;;;16.55;10.43;;;;;;;18.78;73.79;99403.45;4130664;85;21049;-78
2021/06/18 06:05:56;;;;;;;19.10;9.98;;;;;;;19.00;73.80;99415.00;4128090;85;21118;-81
2021/06/18 06:11:58;;;;;;;11.40;8.65;;;;;;;19.21;73.61;99411.88;4133254;85;21082;-78
2021/06/18 06:18:00;;;;;;;11.35;7.92;;;;;;;19.41;73.31;99403.03;4132879;85;21132;-77
2021/06/18 06:24:02;;;;;;;14.65;8.45;;;;;;;19.64;73.03;99401.59;4100131;85;21043;-79
2021/06/18 06:30:08;;;;;;;11.43;8.20;;;;;;;19.89;72.69;99408.84;4102967;85;21000;-79
2021/06/18 06:36:09;;;;;;;13.63;8.27;;;;;;;20.18;72.17;99403.73;4129733;85;21082;-78
2021/06/18 06:42:11;;;;;;;11.53;7.25;;;;;;;20.45;71.65;99397.98;4128882;85;21053;-78
2021/06/18 06:48:12;;;;;;;13.78;7.85;;;;;;;20.70;71.62;99391.25;4136185;84;21527;-78
2021/06/18 06:54:14;;;;;;;19.30;8.63;;;;;;;21.05;71.29;99395.97;4131563;85;21070;-80
2021/06/18 07:00:16;;;;;;;13.78;8.75;;;;;;;21.51;70.44;99396.98;4139099;84;21080;-79
2021/06/18 07:06:17;;;;;;;9.48;7.53;;;;;;;22.11;70.49;99390.37;4131213;85;21099;-79
2021/06/18 07:12:18;;;;;;;12.00;7.10;;;;;;;22.82;70.02;99392.56;4134775;85;21078;-79
2021/06/18 07:18:20;;;;;;;10.03;7.00;;;;;;;23.76;69.58;99385.78;4143081;85;21043;-78
2021/06/18 07:24:21;;;;;;;12.40;7.33;;;;;;;24.58;68.70;99384.30;4131285;85;21058;-79
2021/06/18 07:30:24;;;;;;;8.55;6.50;;;;;;;25.29;67.28;99380.83;4128645;84;21769;-78
2021/06/18 07:36:25;;;;;;;9.78;6.05;;;;;;;25.95;66.26;99377.14;4129305;85;21090;-78
2021/06/18 07:42:29;;;;;;;9.40;6.28;;;;;;;26.30;64.74;99374.13;4121463;85;21661;-78
2021/06/18 07:48:30;;;;;;;10.03;6.72;;;;;;;26.70;64.05;99375.27;4145070;85;21132;-78
2021/06/18 07:54:32;;;;;;;12.30;6.00;;;;;;;27.00;62.69;99367.17;4129826;85;21054;-79
2021/06/18 08:00:33;;;;;;;10.18;6.15;;;;;;;27.19;61.68;99365.16;4126597;85;21024;-78
2021/06/18 08:06:36;;;;;;;6.83;5.72;;;;;;;27.34;60.39;99366.02;4117180;85;21098;-79
2021/06/18 08:12:37;;;;;;;10.23;5.87;;;;;;;27.53;59.21;99366.03;4120359;85;21055;-77
2021/06/18 08:18:39;;;;;;;8.00;5.45;;;;;;;27.54;57.22;99363.39;4124650;85;21038;-79
2021/06/18 08:24:40;;;;;;;6.08;4.75;;;;;;;27.68;56.50;99362.48;4117342;85;21094;-79
2021/06/18 08:30:42;;;;;;;9.45;5.28;;;;;;;27.79;56.00;99353.64;4113597;85;21083;-79
2021/06/18 08:36:44;;;;;;;7.58;4.90;;;;;;;27.80;54.82;99350.20;4140345;85;21034;-78
2021/06/18 08:42:48;;;;;;;7.60;4.28;;;;;;;27.87;53.68;99348.41;4125388;84;21071;-78
2021/06/18 08:48:50;;;;;;;6.20;4.95;;;;;;;27.98;53.07;99345.83;4128795;85;21109;-79
2021/06/18 08:54:54;;;;;;;8.35;4.70;;;;;;;27.95;51.59;99341.95;4142214;85;21078;-78
2021/06/18 09:00:56;;;;;;;7.75;4.60;;;;;;;27.80;49.71;99338.95;4129409;85;21070;-78
2021/06/18 09:07:00;;;;;;;12.75;5.17;;;;;;;27.92;50.03;99336.52;4141260;84;21074;-77
2021/06/18 09:13:21;;;;;;;6.83;4.42;;;;;;;27.99;48.21;99338.92;4143722;85;21035;-78
2021/06/18 09:19:27;;;;;;;8.73;4.67;;;;;;;28.08;48.09;99326.20;4127892;85;21560;-78
2021/06/18 09:25:28;;;;;;;7.70;5.10;;;;;;;28.30;47.94;99321.70;4130211;84;21051;-78
2021/06/18 09:31:48;;;;;;;5.00;4.10;;;;;;;28.52;48.15;99323.50;4146354;83;21127;-82
2021/06/18 09:37:56;;;;;;;6.97;4.05;;;;;;;28.60;46.03;99319.02;4124038;85;21095;-81
2021/06/18 09:44:01;;;;;;;6.95;4.50;;;;;;;28.83;45.31;99319.48;4139057;84;21071;-79
2021/06/18 09:50:08;;;;;;;6.35;4.20;;;;;;;29.11;45.04;99314.27;4130278;85;21096;-80
2021/06/18 09:56:13;;;;;;;5.78;4.40;;;;;;;29.28;44.56;99313.84;4118743;85;21567;-80
2021/06/18 10:02:17;;;;;;;;;;;;;;;29.32;43.74;99315.05;4122506;85;21063;-79
2021/06/18 10:08:19;;;;;;;8.13;4.55;;;;;;;29.01;43.66;99307.97;4130765;85;20162;-79
2021/06/18 10:14:21;;;;;;;5.58;4.00;;;;;;;28.97;44.05;99308.03;4130472;85;21046;-80
2021/06/18 10:20:29;;;;;;;5.58;3.95;;;;;;;28.85;43.90;99303.49;4121978;85;21099;-80
2021/06/18 10:26:32;;;;;;;4.40;3.83;;;;;;;29.35;43.37;99298.55;4126494;85;21054;-81
2021/06/18 10:32:36;;;;;;;9.23;4.47;;;;;;;29.88;43.28;99281.97;4127884;85;21594;-78
2021/06/18 10:38:47;;;;;;;9.60;4.55;;;;;;;30.22;42.72;99281.02;4118034;85;21075;-79
2021/06/18 10:44:53;;;;;;;7.28;4.22;;;;;;;30.43;42.13;99279.61;4117645;81;21083;-80
2021/06/18 10:50:55;;;;;;;4.80;3.83;;;;;;;30.69;41.59;99277.50;4063518;85;21867;-80
2021/06/18 10:57:02;;;;;;;6.53;4.22;;;;;;;30.79;40.59;99276.69;4065525;85;21083;-80
2021/06/18 11:03:04;;;;;;;5.90;3.85;;;;;;;30.97;39.56;99279.86;4069637;84;21055;-79
2021/06/18 11:09:06;;;;;;;5.67;4.05;;;;;;;31.15;39.83;99277.25;4073670;85;21082;-79
2021/06/18 11:15:24;;;;;;;5.55;3.72;;;;;;;31.31;39.17;99273.73;4072707;85;21509;-80
2021/06/18 11:21:26;;;;;;;4.62;3.65;;;;;;;31.63;38.79;99266.63;4068496;85;21031;-80
2021/06/18 11:27:32;;;;;;;6.15;4.03;;;;;;;31.86;37.08;99263.34;4081316;85;21059;-80
2021/06/18 11:33:50;;;;;;;5.95;4.12;;;;;;;32.18;37.45;99253.19;4066112;85;21501;-80
2021/06/18 11:39:48;;;;;;;4.33;3.93;;;;;;;32.56;37.56;99246.08;4076622;85;22263;-80
2021/06/18 11:45:52;;;;;;;5.83;3.80;;;;;;;32.89;36.33;99245.27;4080065;85;21119;-80
2021/06/18 11:52:02;;;;;;;4.47;3.75;;;;;;;33.16;36.76;99242.30;4142471;85;21049;-79
2021/06/18 11:58:04;;;;;;;4.28;3.55;;;;;;;33.53;33.75;99233.38;4132528;85;21059;-81
2021/06/18 12:04:15;;;;;;;4.37;3.98;;;;;;;33.14;34.75;99242.72;4136482;85;21619;-81
2021/06/18 12:10:30;;;;;;;5.90;4.00;;;;;;;32.96;34.80;99239.04;4121884;85;21115;-79
2021/06/18 12:16:36;;;;;;;4.73;4.23;;;;;;;32.74;34.33;99230.58;4130887;85;21441;-80
2021/06/18 12:22:38;;;;;;;5.78;4.58;;;;;;;32.35;34.86;99230.64;4114403;85;21084;-81
2021/06/18 12:28:40;;;;;;;4.37;3.80;;;;;;;32.13;34.45;99222.80;4126336;85;21114;-83
2021/06/18 12:34:51;;;;;;;5.85;4.00;;;;;;;31.71;31.46;99218.15;4121161;85;21074;-80
2021/06/18 12:40:53;;;;;;;4.95;3.50;;;;;;;31.14;33.98;99217.72;4116866;84;21595;-81
2021/06/18 12:47:01;;;;;;;4.10;3.60;;;;;;;30.90;33.27;99215.32;4133607;84;21032;-79
2021/06/18 12:53:12;;;;;;;8.45;3.58;;;;;;;30.71;32.42;99213.42;4110257;86;21098;-80
2021/06/18 12:59:15;;;;;;;3.27;2.98;;;;;;;30.52;32.24;99210.23;4082209;86;21083;-79
2021/06/18 13:05:19;;;;;;;5.33;3.80;;;;;;;30.37;31.67;99203.34;4088401;85;21023;-80
2021/06/18 13:11:27;;;;;;;4.72;3.60;;;;;;;30.29;32.70;99201.47;4082693;86;21068;-80
2021/06/18 13:17:29;;;;;;;5.28;3.20;;;;;;;30.15;33.21;99192.49;4105500;84;21660;-79
2021/06/18 13:23:31;;;;;;;7.60;3.40;;;;;;;30.10;33.81;99191.19;4103091;84;21049;-80
2021/06/18 13:29:35;;;;;;;4.67;3.90;;;;;;;30.09;34.05;99189.64;4103649;86;21018;-79
2021/06/18 13:35:41;;;;;;;5.37;3.90;;;;;;;30.05;34.21;99191.16;4095560;84;21067;-79
2021/06/18 13:41:44;;;;;;;8.70;3.67;;;;;;;30.01;33.24;99189.19;4104126;86;21086;-79
2021/06/18 13:47:49;;;;;;;5.12;4.00;;;;;;;29.93;34.18;99189.53;4108989;85;21043;-82
2021/06/18 13:53:53;;;;;;;7.25;3.80;;;;;;;29.91;33.89;99187.19;4115181;85;21071;-80
2021/06/18 13:59:56;;;;;;;4.83;4.05;;;;;;;29.78;34.23;99180.41;4136624;85;22056;-80
2021/06/18 14:05:59;;;;;;;6.35;3.52;;;;;;;29.73;34.87;99178.31;4135409;84;21083;-80
2021/06/18 14:12:00;;;;;;;5.67;4.10;;;;;;;29.77;34.88;99172.58;4133961;85;21542;-79
2021/06/18 14:18:02;;;;;;;4.22;3.67;;;;;;;29.78;35.04;99163.48;4118691;85;21634;-80
2021/06/18 14:24:05;;;;;;;5.42;3.50;;;;;;;29.80;35.10;99161.73;4127383;85;21068;-79
2021/06/18 14:30:10;;;;;;;4.67;3.55;;;;;;;29.87;35.58;99160.47;4136345;84;21116;-80
2021/06/18 14:36:11;;;;;;;4.37;3.77;;;;;;;29.91;36.07;99154.73;4135214;85;21059;-80
2021/06/18 14:42:12;;;;;;;6.37;4.10;;;;;;;29.85;35.97;99153.92;4129187;85;21577;-79
2021/06/18 14:48:13;;;;;;;4.10;3.75;;;;;;;29.84;36.21;99147.37;4134071;84;21047;-80
2021/06/18 14:54:15;;;;;;;4.65;3.92;;;;;;;29.86;36.65;99146.23;4134844;84;21104;-79
2021/06/18 15:00:18;;;;;;;4.58;3.45;;;;;;;29.85;36.34;99146.86;4126129;85;21044;-81
2021/06/18 15:06:22;;;;;;;6.58;4.20;;;;;;;29.91;35.22;99150.50;4127704;84;21180;-80
2021/06/18 15:12:26;;;;;;;5.12;3.55;;;;;;;29.88;35.98;99145.11;4015402;85;9999849;-81
2021/06/18 15:18:30;;;;;;;4.35;3.60;;;;;;;29.87;36.36;99140.09;4144276;85;21555;-80
2021/06/18 15:24:33;;;;;;;5.87;3.47;;;;;;;29.79;36.33;99136.18;4139868;85;21031;-79
2021/06/18 15:30:35;;;;;;;6.33;3.83;;;;;;;29.71;36.61;99129.44;4143766;85;22046;-80
2021/06/18 15:36:42;;;;;;;5.67;3.80;;;;;;;29.64;36.84;99124.91;4130956;84;21023;-85
2021/06/18 15:42:44;;;;;;;5.25;3.87;;;;;;;29.50;36.91;99125.16;4127924;85;21071;-81
2021/06/18 15:48:46;;;;;;;4.40;3.77;;;;;;;29.39;37.26;99122.86;4127423;85;21501;-81
2021/06/18 15:54:48;;;;;;;5.87;4.55;;;;;;;29.19;37.48;99120.11;4135670;84;22275;-81
2021/06/18 16:00:49;;;;;;;5.17;3.80;;;;;;;29.01;37.69;99116.33;4134788;85;21075;-80
2021/06/18 16:06:54;;;;;;;7.28;3.77;;;;;;;28.89;37.93;99105.44;4126822;85;21047;-84
2021/06/18 16:12:56;;;;;;;4.50;3.72;;;;;;;28.80;38.20;99101.37;4125002;85;21025;-85
2021/06/18 16:18:57;;;;;;;5.60;3.20;;;;;;;28.69;38.12;99094.20;4131501;85;21660;-80
2021/06/18 16:24:58;;;;;;;6.12;3.50;;;;;;;28.57;38.28;99096.11;4139078;85;21072;-79
2021/06/18 16:31:00;;;;;;;4.40;3.40;;;;;;;28.51;38.31;99095.89;4136646;85;21039;-80
2021/06/18 16:37:03;;;;;;;5.15;3.33;;;;;;;28.41;38.50;99088.20;4121136;85;21075;-79
2021/06/18 16:43:06;;;;;;;8.33;3.42;;;;;;;28.33;38.75;99094.10;4175748;85;21934;-79
2021/06/18 16:49:08;;;;;;;7.10;3.02;;;;;;;28.28;39.12;99084.19;4121502;85;21047;-78
2021/06/18 16:55:15;;;;;;;5.83;2.92;;;;;;;28.27;39.20;99090.45;4156190;85;22036;-80
2021/06/18 17:01:16;;;;;;;5.25;3.08;;;;;;;28.17;39.77;99097.50;4155947;85;21019;-79
2021/06/18 17:07:21;;;;;;;3.92;2.83;;;;;;;28.11;39.80;99091.64;4131050;85;21003;-79
2021/06/18 17:14:01;;;;;;;5.30;3.00;;;;;;;28.04;40.32;99093.45;4026588;85;9999883;-79
2021/06/18 17:20:07;;;;;;;3.70;2.65;;;;;;;27.93;40.70;99094.08;4129013;85;21024;-80
2021/06/18 17:26:08;;;;;;;4.53;2.77;;;;;;;27.81;41.49;99099.38;4119857;85;21627;-80
2021/06/18 17:32:10;;;;;;;8.98;3.50;;;;;;;27.70;41.80;99095.61;4135020;85;21963;-80
2021/06/18 17:38:26;;;;;;;6.15;3.15;;;;;;;27.60;42.33;99097.75;4149481;85;21035;-81
2021/06/18 17:44:30;;;;;;;5.33;3.22;;;;;;;27.56;42.79;99100.00;4136233;85;21078;-80
2021/06/18 17:50:31;;;;;;;5.92;3.20;;;;;;;27.46;43.50;99095.73;4122320;85;21603;-79
2021/06/18 17:56:33;;;;;;;6.67;4.42;;;;;;;27.25;43.84;99091.28;4100525;86;21847;-80
2021/06/18 18:02:34;;;;;;;4.47;3.50;;;;;;;27.06;44.34;99096.29;4111537;86;21004;-80
2021/06/18 18:08:43;;;;;;;6.04;3.60;;;;;;;26.92;44.79;99095.65;4057155;86;10000076;-80
2021/06/18 18:14:44;;;;;;;7.12;3.70;;;;;;;26.83;45.22;99095.73;4101770;86;21412;-78
2021/06/18 18:20:47;;;;;;;5.25;3.87;;;;;;;26.54;45.58;99076.02;4098197;84;21651;-80
2021/06/18 18:26:48;;;;;;;7.08;4.00;;;;;;;26.50;46.03;99093.65;4100791;86;21080;-79
2021/06/18 18:32:50;;;;;;;7.90;4.40;;;;;;;26.36;46.43;99107.66;4113788;84;22423;-80
2021/06/18 18:38:52;;;;;;;9.85;4.50;;;;;;;26.24;47.75;99114.27;4104611;86;21043;-79
2021/06/18 18:44:53;;;;;;;5.25;4.25;;;;;;;26.03;47.43;99107.69;4110266;86;21035;-78
2021/06/18 18:50:54;;;;;;;9.03;4.30;;;;;;;25.94;47.76;99116.13;4117218;85;20971;-81
2021/06/18 18:56:55;;;;;;;7.72;3.50;;;;;;;25.82;48.00;99128.34;4123166;85;21953;-80
2021/06/18 19:02:57;;;;;;;5.47;4.05;;;;;;;25.63;48.03;99131.86;4134423;85;21003;-80
2021/06/18 19:09:01;;;;;;;7.95;4.15;;;;;;;25.41;48.47;99137.52;4140305;85;21026;-79
2021/06/18 19:15:04;;;;;;;4.80;4.22;;;;;;;25.19;48.94;99136.30;4136872;85;21954;-79
2021/06/18 19:21:06;;;;;;;7.15;4.35;;;;;;;24.99;49.44;99138.83;4125696;85;21520;-81
2021/06/18 19:27:07;;;;;;;9.03;4.90;;;;;;;24.82;49.78;99141.00;4130146;85;21068;-79
2021/06/18 19:33:09;;;;;;;8.40;4.60;;;;;;;24.63;50.15;99147.20;4179357;85;21449;-78
2021/06/18 19:39:21;;;;;;;8.18;4.92;;;;;;;24.49;50.57;99148.56;4015377;85;9999789;-79
2021/06/18 19:45:22;;;;;;;8.80;6.10;;;;;;;24.39;50.94;99143.43;4139275;85;21963;-78
2021/06/18 19:51:24;;;;;;;9.95;5.67;;;;;;;24.34;51.21;99140.63;4120191;85;20998;-78
2021/06/18 19:57:25;;;;;;;11.73;6.12;;;;;;;24.29;51.37;99148.88;4124476;85;21012;-78
2021/06/18 20:03:27;;;;;;;7.25;5.20;;;;;;;24.23;51.64;99156.29;4130224;85;21660;-78
2021/06/18 20:09:29;;;;;;;9.78;5.50;;;;;;;24.20;52.46;99160.02;4131258;85;21897;-80
2021/06/18 20:15:35;;;;;;;7.30;5.40;;;;;;;24.13;52.60;99163.88;4133575;85;21005;-79
2021/06/18 20:21:38;;;;;;;10.53;5.30;;;;;;;24.02;52.46;99171.95;4141929;85;21059;-80
2021/06/18 20:27:39;;;;;;;8.10;5.10;;;;;;;23.88;52.72;99169.66;4138658;85;22075;-79
2021/06/18 20:33:45;;;;;;;9.88;4.97;;;;;;;23.75;52.97;99168.22;4143641;85;21070;-81
2021/06/18 20:39:44;;;;;;;7.55;5.15;;;;;;;23.52;53.26;99179.91;4132080;85;21139;-81
2021/06/18 20:45:46;;;;;;;6.47;5.58;;;;;;;23.20;53.69;99169.89;4146976;85;21039;-81
2021/06/18 20:51:47;;;;;;;11.05;6.50;;;;;;;22.92;54.65;99171.72;4134290;85;21055;-80
2021/06/18 20:57:49;;;;;;;12.18;6.72;;;;;;;22.68;55.00;99177.55;4126904;85;21095;-80
2021/06/18 21:03:51;;;;;;;10.60;6.37;;;;;;;22.49;55.67;99180.61;4130336;85;21811;-80
2021/06/18 21:09:52;;;;;;;12.35;7.00;;;;;;;22.34;56.00;99169.74;4121964;85;21096;-80
2021/06/18 21:15:54;;;;;;;10.90;7.12;;;;;;;22.26;56.40;99176.17;4127131;85;21099;-80
2021/06/18 21:21:56;;;;;;;11.60;7.45;;;;;;;22.19;56.71;99177.79;4145228;85;21057;-80
2021/06/18 21:27:59;;;;;;;11.10;8.05;;;;;;;21.99;57.03;99173.71;4139262;85;21159;-79
2021/06/18 21:34:00;;;;;;;12.50;8.00;;;;;;;21.85;57.88;99175.55;4126049;85;21067;-82
2021/06/18 21:40:06;;;;;;;9.25;7.00;;;;;;;21.75;58.02;99177.44;4134910;84;20987;-80
2021/06/18 21:46:08;;;;;;;12.23;6.72;;;;;;;21.75;58.88;99183.02;4132712;84;21078;-79
2021/06/18 21:52:10;;;;;;;10.80;6.95;;;;;;;21.83;59.38;99189.14;4136424;84;21107;-80
2021/06/18 21:58:11;;;;;;;9.03;7.37;;;;;;;21.83;59.82;99185.75;4125476;85;21078;-81
2021/06/18 22:04:13;;;;;;;11.35;8.15;;;;;;;21.73;60.27;99187.61;4133396;85;21073;-79
2021/06/18 22:10:16;;;;;;;9.80;8.20;;;;;;;21.55;60.37;99197.70;4130754;85;21019;-79
2021/06/18 22:16:18;;;;;;;10.68;8.35;;;;;;;21.15;60.69;99195.11;4125841;85;21073;-79
2021/06/18 22:22:20;;;;;;;9.85;7.90;;;;;;;20.72;61.13;99187.11;4134013;85;21935;-80
2021/06/18 22:28:21;;;;;;;9.95;8.28;;;;;;;20.37;62.27;99181.09;4130646;85;20989;-80
2021/06/18 22:34:26;;;;;;;12.35;7.65;;;;;;;20.18;62.86;99186.14;4133069;83;21063;-80
2021/06/18 22:40:26;;;;;;;14.25;8.13;;;;;;;20.15;63.40;99184.23;4140326;85;21540;-80
2021/06/18 22:46:32;;;;;;;12.53;9.10;;;;;;;20.27;63.46;99191.08;4133827;83;21083;-79
2021/06/18 22:52:33;;;;;;;11.05;9.05;;;;;;;19.97;63.28;99186.02;4139849;84;21091;-80
2021/06/18 22:58:35;;;;;;;13.22;10.35;;;;;;;19.69;63.96;99179.72;4125580;85;21057;-79
2021/06/18 23:04:38;;;;;;;13.50;9.63;;;;;;;19.45;64.49;99168.55;4128938;85;21074;-79
2021/06/18 23:10:43;;;;;;;10.95;9.48;;;;;;;19.25;64.88;99161.42;4134919;85;21098;-78
2021/06/18 23:16:45;;;;;;;13.40;9.58;;;;;;;19.17;65.51;99172.52;4103808;85;21101;-79
2021/06/18 23:22:49;;;;;;;15.48;11.25;;;;;;;19.17;66.03;99169.12;4133928;85;22195;-79
2021/06/18 23:28:50;;;;;;;13.65;10.25;;;;;;;19.24;66.59;99173.75;4127133;85;21091;-80
2021/06/18 23:34:51;;;;;;;10.58;9.40;;;;;;;19.16;66.74;99170.34;4134242;84;21531;-79
2021/06/18 23:40:53;;;;;;;15.10;10.25;;;;;;;19.12;67.04;99180.71;4132493;84;21022;-80
2021/06/18 23:46:54;;;;;;;12.50;10.85;;;;;;;19.04;67.28;99181.30;4121069;85;21000;-79
2021/06/18 23:52:56;;;;;;;12.45;9.83;;;;;;;18.96;67.38;99174.32;4098314;84;21135;-78
2021/06/18 23:59:00;;;;;;;12.20;10.95;;;;;;;18.86;67.64;99176.09;4087761;85;21038;-79
